createdAt,value
2019-02-22T00:02:06.141Z,36.40
2019-02-22T00:04:35.570Z,32.40
2019-02-22T00:07:04.990Z,35.00
2019-02-22T00:09:34.396Z,35.48
2019-02-22T00:12:04.410Z,33.10
2019-02-22T00:14:35.236Z,34.53
2019-02-22T00:17:10.551Z,35.07
2019-02-22T00:19:39.905Z,34.60
2019-02-22T00:22:10.067Z,35.30
2019-02-22T00:24:39.423Z,35.90
2019-02-22T00:27:09.628Z,35.97
2019-02-22T00:29:39.026Z,35.87
2019-02-22T00:32:08.406Z,34.77
2019-02-22T00:34:38.281Z,35.30
2019-02-22T00:37:07.865Z,36.03
2019-02-22T00:39:37.398Z,35.40
2019-02-22T00:42:06.842Z,34.30
2019-02-22T00:44:37.872Z,36.30
2019-02-22T00:47:07.444Z,37.03
2019-02-22T00:49:41.108Z,35.60
2019-02-22T00:52:12.300Z,35.13
2019-02-22T00:54:42.082Z,35.20
2019-02-22T00:57:11.512Z,35.37
2019-02-22T00:59:40.934Z,33.57
2019-02-22T01:02:11.179Z,33.38
2019-02-22T01:04:40.592Z,32.80
2019-02-22T01:07:10.479Z,34.97
2019-02-22T01:09:41.851Z,33.63
2019-02-22T01:12:14.766Z,36.65
2019-02-22T01:14:44.384Z,36.63
2019-02-22T01:17:15.346Z,34.27
2019-02-22T01:19:45.197Z,34.33
2019-02-22T01:22:22.837Z,34.20
2019-02-22T01:24:52.189Z,33.03
2019-02-22T01:27:21.641Z,33.70
2019-02-22T01:29:53.104Z,31.47
2019-02-22T01:32:24.839Z,33.78
2019-02-22T01:34:59.935Z,29.60
2019-02-22T01:37:31.254Z,30.65
2019-02-22T01:40:06.054Z,31.83
2019-02-22T01:42:36.578Z,32.97
2019-02-22T01:45:07.716Z,32.60
2019-02-22T01:47:38.220Z,35.10
2019-02-22T01:50:08.819Z,35.20
2019-02-22T01:52:38.179Z,38.80
2019-02-22T01:55:07.745Z,37.97
2019-02-22T01:57:39.346Z,40.60
2019-02-22T02:00:11.293Z,39.45
2019-02-22T02:02:40.760Z,41.53
2019-02-22T02:05:10.209Z,43.28
2019-02-22T02:07:39.597Z,41.03
2019-02-22T02:10:09.017Z,42.90
2019-02-22T02:12:38.447Z,39.90
2019-02-22T02:15:08.794Z,42.10
2019-02-22T02:17:41.475Z,42.50
2019-02-22T02:20:11.745Z,41.60
2019-02-22T02:22:41.106Z,41.77
2019-02-22T02:25:11.457Z,42.43
2019-02-22T02:27:42.888Z,42.90
2019-02-22T02:30:13.396Z,41.55
2019-02-22T02:32:43.775Z,41.13
2019-02-22T02:35:18.215Z,39.60
2019-02-22T02:37:50.062Z,38.40
2019-02-22T02:40:21.852Z,38.03
2019-02-22T02:42:51.298Z,41.47
2019-02-22T02:45:21.259Z,38.67
2019-02-22T02:47:50.633Z,39.53
2019-02-22T02:50:20.972Z,38.95
2019-02-22T02:52:50.369Z,38.10
2019-02-22T02:55:36.069Z,40.25
2019-02-22T02:58:05.763Z,38.77
2019-02-22T03:00:39.490Z,40.50
2019-02-22T03:03:08.892Z,41.10
2019-02-22T03:06:11.659Z,42.50
2019-02-22T03:08:41.075Z,41.57
2019-02-22T03:11:20.166Z,41.67
2019-02-22T03:13:41.537Z,39.20
2019-02-22T03:16:10.956Z,40.50
2019-02-22T03:18:40.336Z,42.20
2019-02-22T03:21:09.777Z,39.57
2019-02-22T03:23:39.896Z,41.18
2019-02-22T03:26:09.869Z,41.57
2019-02-22T03:28:42.932Z,40.63
2019-02-22T03:31:12.411Z,43.13
2019-02-22T03:33:42.214Z,45.07
2019-02-22T03:36:13.692Z,44.23
2019-02-22T03:38:45.635Z,47.38
2019-02-22T03:41:16.837Z,46.28
2019-02-22T03:43:46.809Z,48.40
2019-02-22T03:46:17.048Z,46.87
2019-02-22T03:48:47.541Z,48.43
2019-02-22T03:51:21.279Z,50.33
2019-02-22T03:53:57.255Z,50.77
2019-02-22T03:56:26.546Z,50.23
2019-02-22T03:58:56.364Z,50.67
2019-02-22T04:01:25.795Z,52.10
2019-02-22T04:03:55.204Z,50.43
2019-02-22T04:06:24.629Z,53.10
2019-02-22T04:08:55.780Z,53.03
2019-02-22T04:11:25.149Z,55.75
2019-02-22T04:13:54.624Z,54.73
2019-02-22T04:16:27.468Z,53.73
2019-02-22T04:18:57.610Z,53.77
2019-02-22T04:21:29.083Z,55.80
2019-02-22T04:23:59.828Z,57.77
2019-02-22T04:26:34.538Z,55.83
2019-02-22T04:29:06.480Z,58.67
2019-02-22T04:31:36.965Z,56.07
2019-02-22T04:34:06.410Z,57.20
2019-02-22T04:36:36.814Z,53.50
2019-02-22T04:39:08.816Z,54.30
2019-02-22T04:41:39.927Z,58.05
2019-02-22T04:44:09.617Z,54.00
2019-02-22T04:46:39.983Z,55.67
2019-02-22T04:49:09.326Z,55.07
2019-02-22T04:51:43.546Z,53.93
2019-02-22T04:54:16.088Z,55.37
2019-02-22T04:56:46.333Z,58.73
2019-02-22T04:59:17.398Z,59.67
2019-02-22T05:01:51.477Z,58.33
2019-02-22T05:04:20.914Z,57.00
2019-02-22T05:06:50.715Z,55.47
2019-02-22T05:09:20.118Z,57.27
2019-02-22T05:11:49.530Z,54.80
2019-02-22T05:14:19.202Z,55.50
2019-02-22T05:16:48.602Z,53.70
2019-02-22T05:19:22.183Z,51.63
2019-02-22T05:21:52.240Z,54.40
2019-02-22T05:24:21.854Z,55.35
2019-02-22T05:26:51.241Z,58.10
2019-02-22T05:29:21.781Z,54.23
2019-02-22T05:31:51.194Z,55.23
2019-02-22T05:34:20.574Z,56.43
2019-02-22T05:36:52.526Z,56.83
2019-02-22T05:39:22.117Z,57.75
2019-02-22T05:41:51.864Z,60.90
2019-02-22T05:44:23.108Z,61.35
2019-02-22T05:47:00.266Z,62.07
2019-02-22T05:49:25.738Z,64.13
2019-02-22T05:51:55.272Z,64.22
2019-02-22T05:54:24.683Z,63.90
2019-02-22T05:56:55.517Z,69.73
2019-02-22T05:59:25.457Z,66.00
2019-02-22T06:01:54.833Z,66.37
2019-02-22T06:04:24.349Z,67.83
2019-02-22T06:06:53.880Z,62.00
2019-02-22T06:09:23.461Z,64.43
2019-02-22T06:11:53.229Z,67.43
2019-02-22T06:14:22.705Z,67.30
2019-02-22T06:16:52.103Z,66.47
2019-02-22T06:19:22.785Z,67.70
2019-02-22T06:21:52.282Z,68.70
2019-02-22T06:24:21.694Z,70.47
2019-02-22T06:26:54.956Z,67.40
2019-02-22T06:29:25.254Z,68.93
2019-02-22T06:31:55.047Z,70.33
2019-02-22T06:34:27.718Z,68.27
2019-02-22T06:37:02.192Z,70.30
2019-02-22T06:39:31.780Z,68.83
2019-02-22T06:42:01.094Z,65.75
2019-02-22T06:44:30.786Z,67.40
2019-02-22T06:47:00.185Z,67.67
2019-02-22T06:49:31.100Z,64.13
2019-02-22T06:52:00.897Z,62.63
2019-02-22T06:54:30.291Z,63.53
2019-02-22T06:57:01.037Z,62.70
2019-02-22T06:59:30.782Z,61.67
2019-02-22T07:02:00.178Z,60.23
2019-02-22T07:04:29.582Z,60.10
2019-02-22T07:06:59.010Z,58.50
2019-02-22T07:09:28.390Z,58.60
2019-02-22T07:12:01.401Z,58.17
2019-02-22T07:14:32.037Z,59.87
2019-02-22T07:17:04.600Z,55.57
2019-02-22T07:19:33.969Z,56.80
2019-02-22T07:22:03.392Z,56.80
2019-02-22T07:24:32.773Z,55.70
2019-02-22T07:27:02.282Z,53.48
2019-02-22T07:29:31.693Z,54.43
2019-02-22T07:32:06.686Z,55.87
2019-02-22T07:34:36.081Z,55.35
2019-02-22T07:37:08.915Z,55.60
2019-02-22T07:39:38.271Z,57.00
2019-02-22T07:42:07.809Z,56.47
2019-02-22T07:44:37.236Z,59.50
2019-02-22T07:47:06.617Z,58.90
2019-02-22T07:49:36.002Z,56.30
2019-02-22T07:52:05.637Z,59.57
2019-02-22T07:54:36.042Z,57.78
2019-02-22T07:57:07.837Z,59.50
2019-02-22T07:59:37.889Z,57.50
2019-02-22T08:02:14.816Z,59.20
2019-02-22T08:04:49.315Z,56.90
2019-02-22T08:07:18.807Z,58.27
2019-02-22T08:09:49.619Z,59.37
2019-02-22T08:12:25.112Z,59.47
2019-02-22T08:14:55.531Z,58.23
2019-02-22T08:17:32.619Z,56.50
2019-02-22T08:20:02.409Z,56.35
2019-02-22T08:22:31.842Z,56.77
2019-02-22T08:25:01.247Z,56.50
2019-02-22T08:27:33.825Z,52.50
2019-02-22T08:30:03.680Z,53.10
2019-02-22T08:32:33.068Z,53.70
2019-02-22T08:35:03.023Z,49.93
2019-02-22T08:37:32.474Z,48.42
2019-02-22T08:40:02.614Z,49.27
2019-02-22T08:42:32.041Z,48.70
2019-02-22T08:45:03.394Z,48.40
2019-02-22T08:47:33.001Z,49.03
2019-02-22T08:50:02.386Z,49.63
2019-02-22T08:52:33.442Z,46.40
2019-02-22T08:55:03.365Z,46.50
2019-02-22T08:57:36.289Z,46.10
2019-02-22T09:00:09.509Z,47.53
2019-02-22T09:02:39.023Z,47.37
2019-02-22T09:05:09.965Z,45.30
2019-02-22T09:07:40.269Z,45.90
2019-02-22T09:10:10.585Z,47.20
2019-02-22T09:12:41.151Z,44.20
2019-02-22T09:15:10.970Z,45.10
2019-02-22T09:17:40.373Z,45.90
2019-02-22T09:20:10.056Z,48.47
2019-02-22T09:22:39.582Z,46.90
2019-02-22T09:25:08.981Z,48.48
2019-02-22T09:27:38.372Z,46.60
2019-02-22T09:30:09.355Z,48.47
2019-02-22T09:32:39.865Z,46.40
2019-02-22T09:35:10.285Z,49.00
2019-02-22T09:37:39.751Z,50.47
2019-02-22T09:40:10.600Z,49.38
2019-02-22T09:42:39.981Z,47.97
2019-02-22T09:45:10.785Z,48.93
2019-02-22T09:47:40.971Z,47.73
2019-02-22T09:50:11.874Z,47.30
2019-02-22T09:52:43.319Z,46.27
2019-02-22T09:55:12.936Z,47.40
2019-02-22T09:57:42.516Z,46.30
2019-02-22T10:00:17.244Z,46.97
2019-02-22T10:02:48.295Z,43.60
2019-02-22T10:05:25.878Z,42.75
2019-02-22T10:08:02.499Z,43.97
2019-02-22T10:10:35.646Z,41.80
2019-02-22T10:13:05.017Z,42.23
2019-02-22T10:15:34.852Z,42.53
2019-02-22T10:18:04.237Z,40.60
2019-02-22T10:20:41.775Z,44.77
2019-02-22T10:23:11.353Z,41.60
2019-02-22T10:25:50.636Z,41.97
2019-02-22T10:28:21.493Z,41.67
2019-02-22T10:30:52.278Z,42.17
2019-02-22T10:33:21.730Z,43.83
2019-02-22T10:35:56.346Z,42.50
2019-02-22T10:38:25.748Z,42.30
2019-02-22T10:40:55.150Z,41.85
2019-02-22T10:43:24.535Z,42.77
2019-02-22T10:45:54.690Z,41.03
2019-02-22T10:48:24.041Z,40.88
2019-02-22T10:50:53.595Z,41.13
2019-02-22T10:53:24.567Z,39.33
2019-02-22T10:55:58.710Z,37.27
2019-02-22T10:58:30.339Z,38.20
2019-02-22T11:01:00.435Z,38.73
2019-02-22T11:03:29.797Z,38.70
2019-02-22T11:05:59.264Z,37.80
2019-02-22T11:08:28.694Z,38.03
2019-02-22T11:10:58.484Z,36.77
2019-02-22T11:13:29.551Z,37.50
2019-02-22T11:15:58.969Z,37.43
2019-02-22T11:18:29.653Z,36.50
2019-02-22T11:20:59.100Z,36.35
2019-02-22T11:23:29.555Z,36.60
2019-02-22T11:25:59.978Z,35.87
2019-02-22T11:28:31.937Z,37.20
2019-02-22T11:31:01.369Z,36.33
2019-02-22T11:33:30.751Z,34.57
2019-02-22T11:36:03.907Z,34.90
2019-02-22T11:38:33.792Z,34.77
2019-02-22T11:41:03.464Z,34.90
2019-02-22T11:43:33.057Z,35.17
2019-02-22T11:46:05.101Z,36.03
2019-02-22T11:48:38.904Z,36.03
2019-02-22T11:51:08.628Z,35.17
2019-02-22T11:53:38.656Z,32.23
2019-02-22T11:56:08.063Z,31.53
2019-02-22T11:58:37.480Z,31.40
2019-02-22T12:01:09.238Z,32.67
2019-02-22T12:03:40.805Z,33.07
2019-02-22T12:06:13.834Z,31.80
2019-02-22T12:08:43.463Z,31.03
2019-02-22T12:11:15.996Z,31.00
2019-02-22T12:13:49.666Z,32.10
2019-02-22T12:16:19.519Z,29.03
2019-02-22T12:18:52.767Z,32.17
2019-02-22T12:21:23.149Z,29.66
2019-02-22T12:23:55.562Z,30.47
2019-02-22T12:26:31.967Z,27.73
2019-02-22T12:29:06.748Z,28.47
2019-02-22T12:31:36.359Z,24.75
2019-02-22T12:34:05.923Z,26.90
2019-02-22T12:36:41.124Z,27.10
2019-02-22T12:39:12.598Z,24.50
2019-02-22T12:41:43.967Z,25.87
2019-02-22T12:44:15.459Z,25.92
2019-02-22T12:46:46.362Z,26.00
2019-02-22T12:49:17.270Z,23.65
2019-02-22T12:51:46.661Z,24.77
2019-02-22T12:54:18.053Z,25.50
2019-02-22T12:56:57.373Z,25.93
2019-02-22T12:59:18.492Z,24.57
2019-02-22T13:01:47.913Z,24.13
2019-02-22T13:04:18.117Z,24.23
2019-02-22T13:06:51.017Z,25.47
2019-02-22T13:09:21.812Z,26.20
2019-02-22T13:11:51.221Z,31.52
2019-02-22T13:14:20.603Z,27.90
2019-02-22T13:16:50.012Z,26.47
2019-02-22T13:19:19.473Z,26.30
2019-02-22T13:21:49.404Z,25.80
2019-02-22T13:24:18.923Z,24.77
2019-02-22T13:26:48.323Z,23.10
2019-02-22T13:29:18.078Z,22.97
2019-02-22T13:31:48.653Z,22.20
2019-02-22T13:34:19.548Z,22.30
2019-02-22T13:36:54.478Z,23.00
2019-02-22T13:39:25.879Z,20.90
2019-02-22T13:41:55.503Z,21.43
2019-02-22T13:44:26.593Z,19.40
2019-02-22T13:46:56.616Z,16.63
2019-02-22T13:49:26.009Z,17.80
2019-02-22T13:51:55.506Z,15.80
2019-02-22T13:54:25.265Z,17.53
2019-02-22T13:56:59.502Z,18.20
2019-02-22T13:59:28.817Z,17.60
2019-02-22T14:02:00.595Z,17.73
2019-02-22T14:04:30.008Z,16.90
2019-02-22T14:06:59.466Z,16.80
2019-02-22T14:09:28.967Z,18.80
2019-02-22T14:11:59.052Z,19.17
2019-02-22T14:14:30.625Z,19.23
2019-02-22T14:17:00.362Z,19.63
2019-02-22T14:19:29.761Z,19.30
2019-02-22T14:21:59.433Z,19.27
2019-02-22T14:24:29.196Z,16.63
2019-02-22T14:26:59.501Z,19.77
2019-02-22T14:29:28.889Z,19.27
2019-02-22T14:31:58.297Z,18.53
2019-02-22T14:34:29.283Z,17.10
2019-02-22T14:37:01.001Z,14.93
2019-02-22T14:39:32.978Z,13.50
2019-02-22T14:42:02.289Z,14.50
2019-02-22T14:44:31.683Z,13.67
2019-02-22T14:47:01.101Z,12.90
2019-02-22T14:49:30.509Z,13.47
2019-02-22T14:51:59.892Z,14.80
2019-02-22T14:54:29.317Z,15.77
2019-02-22T14:56:59.416Z,20.07
2019-02-22T14:59:33.965Z,19.30
2019-02-22T15:02:04.519Z,17.93
2019-02-22T15:04:36.181Z,27.67
2019-02-22T15:07:06.633Z,31.73
2019-02-22T15:09:36.089Z,25.00
2019-02-22T15:12:05.917Z,18.57
2019-02-22T15:14:37.087Z,21.40
2019-02-22T15:17:27.885Z,17.07
2019-02-22T15:20:00.664Z,15.67
2019-02-22T15:22:33.507Z,12.33
2019-02-22T15:25:08.910Z,17.10
2019-02-22T15:27:41.700Z,20.60
2019-02-22T15:30:11.641Z,15.80
2019-02-22T15:32:42.211Z,12.97
2019-02-22T15:35:14.994Z,13.17
2019-02-22T15:37:46.474Z,12.93
2019-02-22T15:40:19.830Z,11.63
2019-02-22T15:42:49.298Z,10.87
2019-02-22T15:45:21.335Z,11.50
2019-02-22T15:47:55.190Z,12.93
2019-02-22T15:50:25.977Z,13.57
2019-02-22T15:52:55.298Z,14.47
2019-02-22T15:55:24.761Z,14.40
2019-02-22T15:57:55.921Z,13.53
2019-02-22T16:00:27.297Z,13.17
2019-02-22T16:02:57.893Z,14.57
2019-02-22T16:05:31.276Z,14.20
2019-02-22T16:08:03.143Z,15.67
2019-02-22T16:10:35.062Z,15.00
2019-02-22T16:13:04.559Z,16.43
2019-02-22T16:15:36.272Z,15.23
2019-02-22T16:18:07.115Z,16.60
2019-02-22T16:20:37.570Z,17.13
2019-02-22T16:23:07.561Z,17.50
2019-02-22T16:25:37.309Z,16.00
2019-02-22T16:28:06.705Z,15.80
2019-02-22T16:30:37.837Z,14.67
2019-02-22T16:33:07.266Z,14.27
2019-02-22T16:35:36.797Z,13.57
2019-02-22T16:38:06.549Z,14.43
2019-02-22T16:40:36.715Z,12.87
2019-02-22T16:43:07.556Z,12.80
2019-02-22T16:45:40.971Z,13.37
2019-02-22T16:48:10.396Z,12.10
2019-02-22T16:50:39.770Z,10.97
2019-02-22T16:53:13.838Z,10.25
2019-02-22T16:55:46.705Z,9.38
2019-02-22T16:58:20.253Z,10.40
2019-02-22T17:00:49.698Z,8.60
2019-02-22T17:03:22.873Z,11.38
2019-02-22T17:05:52.441Z,28.50
2019-02-22T17:08:22.093Z,36.42
2019-02-22T17:10:54.304Z,37.27
2019-02-22T17:13:24.030Z,27.20
2019-02-22T17:15:56.462Z,23.70
2019-02-22T17:18:26.796Z,12.07
2019-02-22T17:20:56.213Z,8.40
2019-02-22T17:23:25.594Z,7.93
2019-02-22T17:26:02.491Z,8.47
2019-02-22T17:28:34.930Z,9.30
2019-02-22T17:31:04.347Z,8.63
2019-02-22T17:33:34.596Z,8.17
2019-02-22T17:36:03.996Z,8.00
2019-02-22T17:38:33.511Z,8.23
2019-02-22T17:41:03.972Z,8.47
2019-02-22T17:43:34.562Z,8.30
2019-02-22T17:46:04.226Z,8.33
2019-02-22T17:48:33.808Z,9.37
2019-02-22T17:51:05.764Z,8.13
2019-02-22T17:53:35.297Z,8.65
2019-02-22T17:56:11.265Z,9.47
2019-02-22T17:58:41.109Z,9.53
2019-02-22T18:01:10.596Z,8.90
2019-02-22T18:03:40.456Z,9.60
2019-02-22T18:06:10.534Z,9.50
2019-02-22T18:08:39.973Z,9.07
2019-02-22T18:11:09.421Z,9.33
2019-02-22T18:13:39.136Z,9.10
2019-02-22T18:16:08.704Z,9.00
2019-02-22T18:18:38.667Z,8.88
2019-02-22T18:21:08.173Z,9.67
2019-02-22T18:23:38.387Z,9.10
2019-02-22T18:26:08.038Z,9.30
2019-02-22T18:28:37.544Z,9.03
2019-02-22T18:31:06.942Z,8.97
2019-02-22T18:33:36.397Z,11.77
2019-02-22T18:36:06.766Z,8.57
2019-02-22T18:38:36.576Z,9.18
2019-02-22T18:41:06.385Z,9.97
2019-02-22T18:43:35.710Z,8.40
2019-02-22T18:46:05.101Z,8.15
2019-02-22T18:48:35.998Z,8.38
2019-02-22T18:51:05.378Z,7.70
2019-02-22T18:53:34.744Z,7.42
2019-02-22T18:56:04.184Z,6.53
2019-02-22T18:58:33.616Z,6.20
2019-02-22T19:01:03.845Z,5.87
2019-02-22T19:03:33.586Z,11.40
2019-02-22T19:06:03.519Z,11.80
2019-02-22T19:08:32.961Z,7.40
2019-02-22T19:11:02.369Z,8.60
2019-02-22T19:13:32.549Z,7.57
2019-02-22T19:16:02.012Z,7.50
2019-02-22T19:18:31.460Z,8.57
2019-02-22T19:21:01.729Z,7.40
2019-02-22T19:23:31.828Z,9.60
2019-02-22T19:26:01.357Z,10.20
2019-02-22T19:28:30.747Z,11.03
2019-02-22T19:31:01.021Z,11.50
2019-02-22T19:33:30.824Z,12.70
2019-02-22T19:36:00.242Z,12.88
2019-02-22T19:38:29.765Z,13.07
2019-02-22T19:40:59.200Z,12.03
2019-02-22T19:43:30.578Z,12.80
2019-02-22T19:45:59.932Z,12.03
2019-02-22T19:48:29.489Z,13.07
2019-02-22T19:50:59.884Z,13.20
2019-02-22T19:53:30.901Z,12.78
2019-02-22T19:56:00.551Z,13.17
2019-02-22T19:58:33.035Z,15.17
2019-02-22T20:01:03.762Z,13.73
2019-02-22T20:03:33.582Z,14.35
2019-02-22T20:06:02.969Z,12.87
2019-02-22T20:08:32.399Z,13.32
2019-02-22T20:11:01.823Z,13.23
2019-02-22T20:13:32.744Z,13.53
2019-02-22T20:16:02.145Z,13.60
2019-02-22T20:18:31.788Z,13.33
2019-02-22T20:21:01.320Z,13.60
2019-02-22T20:23:30.711Z,14.63
2019-02-22T20:26:00.957Z,15.43
2019-02-22T20:28:30.353Z,15.27
2019-02-22T20:30:59.745Z,16.03
2019-02-22T20:33:29.169Z,13.90
2019-02-22T20:36:00.828Z,14.63
2019-02-22T20:38:30.147Z,16.35
2019-02-22T20:40:59.668Z,14.83
2019-02-22T20:43:35.426Z,14.83
2019-02-22T20:46:07.339Z,16.23
2019-02-22T20:48:37.987Z,13.93
2019-02-22T20:51:07.453Z,14.17
2019-02-22T20:53:36.939Z,13.60
2019-02-22T20:56:07.656Z,14.40
2019-02-22T20:58:37.333Z,15.30
2019-02-22T21:01:14.510Z,14.23
2019-02-22T21:03:38.283Z,15.95
2019-02-22T21:06:08.248Z,15.27
2019-02-22T21:08:38.023Z,15.03
2019-02-22T21:11:07.520Z,16.10
2019-02-22T21:13:39.674Z,16.00
2019-02-22T21:16:09.014Z,14.73
2019-02-22T21:18:38.561Z,14.70
2019-02-22T21:21:08.041Z,15.47
2019-02-22T21:23:37.493Z,14.60
2019-02-22T21:26:07.696Z,15.13
2019-02-22T21:28:37.753Z,16.45
2019-02-22T21:31:09.573Z,14.20
2019-02-22T21:33:42.244Z,13.93
2019-02-22T21:36:13.927Z,15.27
2019-02-22T21:38:43.373Z,14.80
2019-02-22T21:41:13.108Z,14.70
2019-02-22T21:43:44.970Z,15.20
2019-02-22T21:46:18.068Z,16.73
2019-02-22T21:48:47.867Z,15.60
2019-02-22T21:51:18.306Z,16.02
2019-02-22T21:53:48.903Z,16.63
2019-02-22T21:56:20.265Z,18.60
2019-02-22T21:58:49.744Z,15.87
2019-02-22T22:01:19.138Z,17.03
2019-02-22T22:03:51.361Z,16.37
2019-02-22T22:06:20.826Z,17.77
2019-02-22T22:08:50.280Z,16.70
2019-02-22T22:11:19.686Z,16.17
2019-02-22T22:13:49.068Z,15.78
2019-02-22T22:16:18.469Z,15.20
2019-02-22T22:18:48.940Z,15.80
2019-02-22T22:21:20.851Z,15.70
2019-02-22T22:23:50.202Z,16.77
2019-02-22T22:26:21.026Z,16.90
2019-02-22T22:28:50.408Z,17.70
2019-02-22T22:31:19.787Z,16.20
2019-02-22T22:33:49.889Z,16.50
2019-02-22T22:36:19.870Z,16.83
2019-02-22T22:38:49.503Z,16.50
2019-02-22T22:41:20.786Z,16.20
2019-02-22T22:43:51.020Z,16.00
2019-02-22T22:46:20.417Z,16.43
2019-02-22T22:48:50.802Z,15.30
2019-02-22T22:51:20.658Z,16.30
2019-02-22T22:53:50.348Z,16.55
2019-02-22T22:56:21.177Z,16.33
2019-02-22T22:58:51.096Z,16.57
2019-02-22T23:01:24.739Z,16.00
2019-02-22T23:03:54.209Z,17.73
2019-02-22T23:06:23.693Z,16.30
2019-02-22T23:08:53.542Z,16.37
2019-02-22T23:11:23.324Z,16.85
2019-02-22T23:13:52.905Z,16.60
2019-02-22T23:16:22.312Z,16.20
2019-02-22T23:19:01.390Z,16.97
2019-02-22T23:21:24.312Z,16.87
2019-02-22T23:23:54.157Z,16.60
2019-02-22T23:26:23.594Z,16.32
2019-02-22T23:28:52.973Z,16.03
2019-02-22T23:31:22.934Z,15.70
2019-02-22T23:33:53.467Z,15.60
2019-02-22T23:36:22.822Z,15.40
2019-02-22T23:38:52.477Z,14.53
2019-02-22T23:41:21.920Z,14.65
2019-02-22T23:43:51.630Z,15.80
2019-02-22T23:46:21.857Z,15.90
2019-02-22T23:48:51.281Z,13.93
2019-02-22T23:51:20.661Z,13.23
2019-02-22T23:53:50.044Z,14.17
2019-02-22T23:56:20.277Z,14.77
2019-02-22T23:58:50.245Z,14.37
